Tuesday, July 22, 2014
17:34 UTC
  |  Log In   |  Register Free
Airport Search:

Talladega Municipal Airport
(KASN)

Talladega Municipal Airport Diagram
No Airport Diagram Available

FAA data valid effective May 29, 2014 until July 24, 2014 (unless otherwise noted).

 
 
 
 
 
 
 
 
 
 
 
 
 
 

Current Aviation Weather for Talladega Municipal Airport (KASN)

The most recent METAR observation for KANB was updated at: 1601 UTC
METAR Summary (Translated METAR)
KANB
221601Z AUTO 12007KT 10SM SCT024 BKN036 26/21 A3014 RMK AO2 T02560211
KGAD
(25.8 nm NW from KANB)
221635Z AUTO 12006KT 10SM SCT026 BKN036 BKN042 28/20 A3012 RMK AO1
TAF Summary (Translated TAF)
KANB
221437Z 2215/2312 08006KT 6SM -DZ BR BKN015 FM221600 11005KT P6SM VCSH SCT025 BKN035 FM222000 13005KT 4SM SHRA VCTS SCT015CB BKN035 FM230200 00000KT 6SM BR BKN250 FM230800 00000KT 4SM BR SCT007 SCT150
  Airport Weather Conditions for KASN

Current weather conditions are
not available for ASN


The nearest NOAA weather station
is at ANB, (9.7 nm NE from ASN)
  
 Current Weather at ANB
80° F
Fair
East winds at 5.8 mph
ANB NOAA Radar

Pressure: 30.13 in
Humidity: 71%
Wind: East at 5.8 MPH (5 KT)
Dew Point: 70.0°F
Visibility: 10.00 mi


Airport Weather Forecast for KASN

Translated METAR and TAF for KANB
Translated METAR for KANB (1727 UTC 22 July 2014)
found at http://aviationweather.gov/adds/metars/
 
METAR text: KANB 221653Z AUTO 10005KT 10SM CLR 27/21 A3013 RMK AO2 SLP192 T02670211
Conditions at: KANB (ANNISTON , AL, US) observed 1653 UTC 22 July 2014
Temperature: 26.7°C (80°F)
Dewpoint: 21.1°C (70°F) [RH = 71%]
Pressure (altimeter): 30.13 inches Hg (1020.4 mb)
[Sea-level pressure: 1019.2 mb]
Winds: from the E (100 degrees) at 6 MPH (5 knots; 2.6 m/s)
Visibility: 10 or more miles (16+ km)
Ceiling: at least 12,000 feet AGL
Clouds: sky clear below 12,000 feet AGL
Weather: automated observation with no human augmentation;
there may or may not be significant weather present at this time
Translated TAF for KANB
Forecast for: KANB (ANNISTON , AL, US)
TAF Text: KANB 221437Z 2215/2312 08006KT 6SM -DZ BR BKN015
Forecast period: 1500 to 1600 UTC 22 July 2014
Forecast type: FROM: standard forecast or significant change
Winds: from the E (80 degrees) at 7 MPH (6 knots; 3.1 m/s)
Visibility: 6 miles (10 km)
Ceiling: 1500 feet AGL
Clouds: broken clouds at 1500 feet AGL
Weather: -DZ BR  (light drizzle, mist)
TAF Text: FM221600 11005KT P6SM VCSH SCT025 BKN035
Forecast period: 1600 to 2000 UTC 22 July 2014
Forecast type: FROM: standard forecast or significant change
Winds: from the ESE (110 degrees) at 6 MPH (5 knots; 2.6 m/s)
Visibility: 6 or more miles (10+ km)
Ceiling: 3500 feet AGL
Clouds: scattered clouds at 2500 feet AGL
broken clouds at 3500 feet AGL
Weather: VCSH  (showers in vicinity)
TAF Text: FM222000 13005KT 4SM SHRA VCTS SCT015CB BKN035
Forecast period: 2000 UTC 22 July 2014 to 0200 UTC 23 July 2014
Forecast type: FROM: standard forecast or significant change
Winds: from the SE (130 degrees) at 6 MPH (5 knots; 2.6 m/s)
Visibility: 4 miles (6 km)
Ceiling: 3500 feet AGL
Clouds: scattered clouds at 1500 feet AGL
broken clouds at 3500 feet AGL
Weather: SHRA VCTS  (rain showers, thunderstorm in vicinity)
TAF Text: FM230200 00000KT 6SM BR BKN250
Forecast period: 0200 to 0800 UTC 23 July 2014
Forecast type: FROM: standard forecast or significant change
Winds: calm
Visibility: 6 miles (10 km)
Ceiling: 25000 feet AGL
Clouds: broken clouds at 25000 feet AGL
Weather: BR  (mist)
TAF Text: FM230800 00000KT 4SM BR SCT007 SCT150
Forecast period: 0800 to 1200 UTC 23 July 2014
Forecast type: FROM: standard forecast or significant change
Winds: calm
Visibility: 4 miles (6 km)
Clouds: scattered clouds at 700 feet AGL
scattered clouds at 15000 feet AGL
Weather: BR  (mist)

Find All Airport Services Find A Hotel Find A Rental Car Find A Golf Course Find A Restaurant $100 Hamburger



FBO's on the Field
FBO Company Facility Photos Services Transportation Aviation Fuel Prices: Prices include tax
Catering Weather Repair Courtesy Rental Type 100LL JetA JetA+ MOGAS 8087
 
Talladega Municipal

This FBO has not yet been rated
FS:Texaco
Last Updated: Jul-09
Login to update fuel prices
SS:
Contact Talladega MunicipalMore FBO Information
 
Add another FBO Facility Photos Catering Weather Repair Courtesy Rental Type 100LL JetA JetA+ MOGAS 8087
Services Transportation Aviation Fuel Prices: Prices include tax


GlobalAir.com Airport Resource Center model-print
model-print
model-print
model-print